createdAt,value
2019-03-26T00:00:09.245Z,7.03
2019-03-26T00:02:40.199Z,7.02
2019-03-26T00:05:09.851Z,6.96
2019-03-26T00:07:39.154Z,6.98
2019-03-26T00:10:08.554Z,6.97
2019-03-26T00:12:37.877Z,7.05
2019-03-26T00:15:07.349Z,6.99
2019-03-26T00:17:37.269Z,7.02
2019-03-26T00:20:06.725Z,6.97
2019-03-26T00:22:36.046Z,6.93
2019-03-26T00:25:06.980Z,7.00
2019-03-26T00:27:36.368Z,6.96
2019-03-26T00:30:06.130Z,6.99
2019-03-26T00:32:35.462Z,6.98
2019-03-26T00:35:05.225Z,6.88
2019-03-26T00:37:34.550Z,6.87
2019-03-26T00:40:04.449Z,6.83
2019-03-26T00:42:33.775Z,6.79
2019-03-26T00:45:03.107Z,6.85
2019-03-26T00:47:32.507Z,6.85
2019-03-26T00:50:01.830Z,6.88
2019-03-26T00:52:31.227Z,6.85
2019-03-26T00:55:00.557Z,6.89
2019-03-26T00:57:29.876Z,6.85
2019-03-26T00:59:59.208Z,6.86
2019-03-26T01:02:28.852Z,6.86
2019-03-26T01:04:58.182Z,6.94
2019-03-26T01:07:27.513Z,6.86
2019-03-26T01:09:56.840Z,6.87
2019-03-26T01:12:26.159Z,6.94
2019-03-26T01:14:56.460Z,6.99
2019-03-26T01:17:25.781Z,6.97
2019-03-26T01:19:55.113Z,6.93
2019-03-26T01:22:24.436Z,6.94
2019-03-26T01:24:53.769Z,6.92
2019-03-26T01:27:23.100Z,6.90
2019-03-26T01:29:52.714Z,6.87
2019-03-26T01:32:22.400Z,6.92
2019-03-26T01:34:51.724Z,6.85
2019-03-26T01:37:21.320Z,6.86
2019-03-26T01:39:50.940Z,6.86
2019-03-26T01:42:20.265Z,6.88
2019-03-26T01:44:49.588Z,6.85
2019-03-26T01:47:18.917Z,6.88
2019-03-26T01:49:49.211Z,6.90
2019-03-26T01:52:18.540Z,6.82
2019-03-26T01:54:47.861Z,6.81
2019-03-26T01:57:17.477Z,6.78
2019-03-26T01:59:46.801Z,6.76
2019-03-26T02:02:16.138Z,6.76
2019-03-26T02:04:58.962Z,6.65
2019-03-26T02:07:16.493Z,6.73
2019-03-26T02:09:46.888Z,6.73
2019-03-26T02:12:16.561Z,6.72
2019-03-26T02:14:45.885Z,6.72
2019-03-26T02:17:15.204Z,6.75
2019-03-26T02:19:44.531Z,6.80
2019-03-26T02:22:13.869Z,6.82
2019-03-26T02:24:43.190Z,6.79
2019-03-26T02:27:12.513Z,6.73
2019-03-26T02:29:41.903Z,6.78
2019-03-26T02:32:11.176Z,6.77
2019-03-26T02:34:40.790Z,6.71
2019-03-26T02:37:10.121Z,6.71
2019-03-26T02:39:39.448Z,6.78
2019-03-26T02:42:08.784Z,6.70
2019-03-26T02:44:39.169Z,6.68
2019-03-26T02:47:08.491Z,6.67
2019-03-26T02:49:37.815Z,6.67
2019-03-26T02:52:07.165Z,6.68
2019-03-26T02:54:37.490Z,6.71
2019-03-26T02:57:06.812Z,6.71
2019-03-26T02:59:36.133Z,6.77
2019-03-26T03:02:05.469Z,6.76
2019-03-26T03:04:34.791Z,6.65
2019-03-26T03:07:04.121Z,6.68
2019-03-26T03:09:33.485Z,6.68
2019-03-26T03:12:02.831Z,6.69
2019-03-26T03:14:33.249Z,6.70
2019-03-26T03:17:02.622Z,6.65
2019-03-26T03:19:31.939Z,6.63
2019-03-26T03:22:01.265Z,6.59
2019-03-26T03:24:30.591Z,6.67
2019-03-26T03:27:00.222Z,6.68
2019-03-26T03:29:29.549Z,6.65
2019-03-26T03:31:58.880Z,6.61
2019-03-26T03:34:28.269Z,6.63
2019-03-26T03:36:57.579Z,6.61
2019-03-26T03:39:26.894Z,6.67
2019-03-26T03:41:56.225Z,6.68
2019-03-26T03:44:25.551Z,6.65
2019-03-26T03:46:56.574Z,6.64
2019-03-26T03:49:27.679Z,6.69
2019-03-26T03:51:58.050Z,6.64
2019-03-26T03:54:27.519Z,6.63
2019-03-26T03:56:58.703Z,6.70
2019-03-26T03:59:29.066Z,6.64
2019-03-26T04:01:58.405Z,6.70
2019-03-26T04:04:27.732Z,6.70
2019-03-26T04:06:57.062Z,6.70
2019-03-26T04:09:26.389Z,6.65
2019-03-26T04:11:55.743Z,6.68
2019-03-26T04:14:25.067Z,6.69
2019-03-26T04:16:54.398Z,6.71
2019-03-26T04:19:23.732Z,6.72
2019-03-26T04:21:53.057Z,6.75
2019-03-26T04:24:22.386Z,6.68
2019-03-26T04:26:51.712Z,6.69
2019-03-26T04:29:21.040Z,6.59
2019-03-26T04:31:50.373Z,6.57
2019-03-26T04:34:22.664Z,6.55
2019-03-26T04:36:50.729Z,6.56
2019-03-26T04:39:20.060Z,6.58
2019-03-26T04:41:49.382Z,6.61
2019-03-26T04:44:18.714Z,6.43
2019-03-26T04:46:48.041Z,6.45
2019-03-26T04:49:17.370Z,6.48
2019-03-26T04:51:46.718Z,6.55
2019-03-26T04:54:16.028Z,6.58
2019-03-26T04:56:45.360Z,6.50
2019-03-26T04:59:14.691Z,6.47
2019-03-26T05:01:44.018Z,6.51
2019-03-26T05:04:13.346Z,6.57
2019-03-26T05:06:42.671Z,6.52
2019-03-26T05:09:11.996Z,6.52
2019-03-26T05:11:41.325Z,6.48
2019-03-26T05:14:10.915Z,6.50
2019-03-26T05:16:40.237Z,6.45
2019-03-26T05:19:09.566Z,6.31
2019-03-26T05:21:38.891Z,6.35
2019-03-26T05:24:08.534Z,6.33
2019-03-26T05:26:38.116Z,6.38
2019-03-26T05:29:07.442Z,6.46
2019-03-26T05:31:36.768Z,6.48
2019-03-26T05:34:06.099Z,6.34
2019-03-26T05:36:35.446Z,6.37
2019-03-26T05:39:06.814Z,6.45
2019-03-26T05:41:37.098Z,6.44
2019-03-26T05:44:06.435Z,6.43
2019-03-26T05:46:35.763Z,6.45
2019-03-26T05:49:05.104Z,6.34
2019-03-26T05:51:34.424Z,6.28
2019-03-26T05:54:03.762Z,6.39
2019-03-26T05:56:33.338Z,6.38
2019-03-26T05:59:02.677Z,6.42
2019-03-26T06:01:32.005Z,6.38
2019-03-26T06:04:01.339Z,6.43
2019-03-26T06:06:30.661Z,6.49
2019-03-26T06:08:59.998Z,6.47
2019-03-26T06:11:29.326Z,6.40
2019-03-26T06:13:58.730Z,6.44
2019-03-26T06:16:37.887Z,6.49
2019-03-26T06:18:59.422Z,6.45
2019-03-26T06:21:28.751Z,6.49
2019-03-26T06:23:58.082Z,6.47
2019-03-26T06:26:27.414Z,6.49
2019-03-26T06:28:56.758Z,6.48
2019-03-26T06:31:26.077Z,6.43
2019-03-26T06:33:56.659Z,6.34
2019-03-26T06:36:25.917Z,6.47
2019-03-26T06:38:55.255Z,6.40
2019-03-26T06:41:24.584Z,6.34
2019-03-26T06:43:53.919Z,6.31
2019-03-26T06:46:23.254Z,6.46
2019-03-26T06:48:52.862Z,6.47
2019-03-26T06:51:22.214Z,6.44
2019-03-26T06:53:51.542Z,6.46
2019-03-26T06:56:20.871Z,6.48
2019-03-26T06:58:50.200Z,6.46
2019-03-26T07:01:19.602Z,6.40
2019-03-26T07:03:48.921Z,6.34
2019-03-26T07:06:18.255Z,6.38
2019-03-26T07:08:47.587Z,6.45
2019-03-26T07:11:16.933Z,6.48
2019-03-26T07:13:46.262Z,6.52
2019-03-26T07:16:15.897Z,6.54
2019-03-26T07:18:45.222Z,6.53
2019-03-26T07:21:14.632Z,6.53
2019-03-26T07:23:43.955Z,6.68
2019-03-26T07:26:13.288Z,6.73
2019-03-26T07:28:43.686Z,6.74
2019-03-26T07:31:13.020Z,6.65
2019-03-26T07:33:42.351Z,6.71
2019-03-26T07:36:11.687Z,6.63
2019-03-26T07:38:41.012Z,6.60
2019-03-26T07:41:10.342Z,6.52
2019-03-26T07:43:39.732Z,6.65
2019-03-26T07:46:09.070Z,6.73
2019-03-26T07:48:38.400Z,6.67
2019-03-26T07:51:07.755Z,6.68
2019-03-26T07:53:37.088Z,6.72
2019-03-26T07:56:06.415Z,6.70
2019-03-26T07:58:35.742Z,6.71
2019-03-26T08:01:05.068Z,6.66
2019-03-26T08:03:34.665Z,6.76
2019-03-26T08:06:04.069Z,6.85
2019-03-26T08:08:33.398Z,6.94
2019-03-26T08:11:02.727Z,7.03
2019-03-26T08:13:32.097Z,7.12
2019-03-26T08:16:01.388Z,7.30
2019-03-26T08:18:30.721Z,7.39
2019-03-26T08:21:00.044Z,7.48
2019-03-26T08:23:29.377Z,7.48
2019-03-26T08:25:58.702Z,7.48
2019-03-26T08:28:28.033Z,7.49
2019-03-26T08:30:57.377Z,7.41
2019-03-26T08:33:26.700Z,7.42
2019-03-26T08:35:56.025Z,7.43
2019-03-26T08:38:25.605Z,7.50
2019-03-26T08:40:55.177Z,7.67
2019-03-26T08:43:24.562Z,7.81
2019-03-26T08:45:53.835Z,7.84
2019-03-26T08:48:23.159Z,7.86
2019-03-26T08:50:52.629Z,7.95
2019-03-26T08:53:22.930Z,8.03
2019-03-26T08:55:52.255Z,8.18
2019-03-26T08:58:21.854Z,8.31
2019-03-26T09:00:51.179Z,8.34
2019-03-26T09:03:20.508Z,8.36
2019-03-26T09:05:49.899Z,8.28
2019-03-26T09:08:25.172Z,8.23
2019-03-26T09:10:51.934Z,8.17
2019-03-26T09:13:21.286Z,8.18
2019-03-26T09:15:50.856Z,8.17
2019-03-26T09:18:20.195Z,8.20
2019-03-26T09:20:49.523Z,8.28
2019-03-26T09:23:18.859Z,8.29
2019-03-26T09:25:48.190Z,8.36
2019-03-26T09:28:17.522Z,8.42
2019-03-26T09:30:46.848Z,8.40
2019-03-26T09:33:16.475Z,8.44
2019-03-26T09:35:45.865Z,8.26
2019-03-26T09:38:16.269Z,8.09
2019-03-26T09:40:46.665Z,8.08
2019-03-26T09:43:16.002Z,7.96
2019-03-26T09:45:45.330Z,8.11
2019-03-26T09:48:14.880Z,8.22
2019-03-26T09:50:44.220Z,8.13
2019-03-26T09:53:13.550Z,8.00
2019-03-26T09:55:43.170Z,7.94
2019-03-26T09:58:12.769Z,7.95
2019-03-26T10:00:42.172Z,7.87
2019-03-26T10:03:11.502Z,7.93
2019-03-26T10:05:40.840Z,7.96
2019-03-26T10:08:10.167Z,7.96
2019-03-26T10:10:39.519Z,8.03
2019-03-26T10:13:09.092Z,8.10
2019-03-26T10:15:38.430Z,8.21
2019-03-26T10:18:09.122Z,8.34
2019-03-26T10:20:38.459Z,8.46
2019-03-26T10:23:07.781Z,8.67
2019-03-26T10:25:37.115Z,8.77
2019-03-26T10:28:06.513Z,8.92
2019-03-26T10:30:38.126Z,8.95
2019-03-26T10:33:08.088Z,9.11
2019-03-26T10:35:37.716Z,9.23
2019-03-26T10:38:07.523Z,9.18
2019-03-26T10:40:40.085Z,9.37
2019-03-26T10:43:09.414Z,9.24
2019-03-26T10:45:38.727Z,9.35
2019-03-26T10:48:08.418Z,9.48
2019-03-26T10:50:38.031Z,9.46
2019-03-26T10:53:07.354Z,9.59
2019-03-26T10:55:36.934Z,9.78
2019-03-26T10:58:06.336Z,10.00
2019-03-26T11:00:35.735Z,10.16
2019-03-26T11:03:05.137Z,10.18
2019-03-26T11:05:34.859Z,10.28
2019-03-26T11:08:04.196Z,10.42
2019-03-26T11:10:33.774Z,10.71
2019-03-26T11:13:03.175Z,10.97
2019-03-26T11:15:32.585Z,11.09
2019-03-26T11:18:01.993Z,11.15
2019-03-26T11:20:31.309Z,11.22
2019-03-26T11:23:00.891Z,11.27
2019-03-26T11:25:30.229Z,11.12
2019-03-26T11:27:59.559Z,10.91
2019-03-26T11:30:29.127Z,11.00
2019-03-26T11:32:58.458Z,11.12
2019-03-26T11:35:27.831Z,10.86
2019-03-26T11:37:57.125Z,10.89
2019-03-26T11:40:26.463Z,10.94
2019-03-26T11:42:55.798Z,10.76
2019-03-26T11:45:25.137Z,10.49
2019-03-26T11:47:54.465Z,10.49
2019-03-26T11:50:23.915Z,10.40
2019-03-26T11:52:53.693Z,10.19
2019-03-26T11:55:23.056Z,10.04
2019-03-26T11:57:52.381Z,9.77
2019-03-26T12:00:32.789Z,9.65
2019-03-26T12:03:02.144Z,9.62
2019-03-26T12:05:31.454Z,9.52
2019-03-26T12:08:00.795Z,9.21
2019-03-26T12:10:30.149Z,9.20
2019-03-26T12:12:59.478Z,9.07
2019-03-26T12:15:30.104Z,9.09
2019-03-26T12:17:59.432Z,9.30
2019-03-26T12:20:28.760Z,9.33
2019-03-26T12:22:58.090Z,9.27
2019-03-26T12:25:27.768Z,9.16
2019-03-26T12:27:57.121Z,9.32
2019-03-26T12:30:31.909Z,9.35
2019-03-26T12:33:01.241Z,9.22
2019-03-26T12:35:31.210Z,9.28
2019-03-26T12:38:00.565Z,9.33
2019-03-26T12:40:29.899Z,9.48
2019-03-26T12:43:00.513Z,9.50
2019-03-26T12:45:29.935Z,9.41
2019-03-26T12:47:59.272Z,9.51
2019-03-26T12:50:31.956Z,9.22
2019-03-26T12:53:00.257Z,9.13
2019-03-26T12:55:29.545Z,9.06
2019-03-26T12:57:58.908Z,9.08
2019-03-26T13:00:34.549Z,9.06
2019-03-26T13:03:03.883Z,9.03
2019-03-26T13:05:33.215Z,9.08
2019-03-26T13:08:02.842Z,9.11
2019-03-26T13:10:32.468Z,8.94
2019-03-26T13:13:01.815Z,8.90
2019-03-26T13:15:31.212Z,8.90
2019-03-26T13:18:00.867Z,8.99
2019-03-26T13:20:30.200Z,9.01
2019-03-26T13:22:59.535Z,9.08
2019-03-26T13:25:28.867Z,8.99
2019-03-26T13:27:58.200Z,9.04
2019-03-26T13:30:27.780Z,9.16
2019-03-26T13:32:57.131Z,9.23
2019-03-26T13:35:26.463Z,9.28
2019-03-26T13:37:56.612Z,9.27
2019-03-26T13:40:27.568Z,9.27
2019-03-26T13:42:56.982Z,9.44
2019-03-26T13:45:26.569Z,9.48
2019-03-26T13:47:55.904Z,9.23
2019-03-26T13:50:26.224Z,9.31
2019-03-26T13:52:56.923Z,9.31
2019-03-26T13:55:26.356Z,9.35
2019-03-26T13:57:55.764Z,9.39
2019-03-26T14:00:34.757Z,9.48
2019-03-26T14:03:04.692Z,9.52
2019-03-26T14:05:34.036Z,9.51
2019-03-26T14:08:03.516Z,9.37
2019-03-26T14:10:40.772Z,9.37
2019-03-26T14:13:04.148Z,9.39
2019-03-26T14:15:33.494Z,9.34
2019-03-26T14:18:02.885Z,9.26
2019-03-26T14:20:32.165Z,9.28
2019-03-26T14:23:01.487Z,9.32
2019-03-26T14:25:30.992Z,9.38
2019-03-26T14:28:00.393Z,9.33
2019-03-26T14:30:35.072Z,9.41
2019-03-26T14:33:05.144Z,9.43
2019-03-26T14:35:34.477Z,9.29
2019-03-26T14:38:04.146Z,9.42
2019-03-26T14:40:33.475Z,9.48
2019-03-26T14:43:02.829Z,9.56
2019-03-26T14:45:32.162Z,9.61
2019-03-26T14:48:01.495Z,9.72
2019-03-26T14:50:30.903Z,9.70
2019-03-26T14:53:00.225Z,9.73
2019-03-26T14:55:29.558Z,9.78
2019-03-26T14:57:58.899Z,9.76
2019-03-26T15:00:28.220Z,9.77
2019-03-26T15:02:57.562Z,9.95
2019-03-26T15:05:26.885Z,9.77
2019-03-26T15:07:56.547Z,9.78
2019-03-26T15:10:25.974Z,9.77
2019-03-26T15:12:55.302Z,9.91
2019-03-26T15:15:24.638Z,9.87
2019-03-26T15:17:54.093Z,9.95
2019-03-26T15:20:23.772Z,10.07
2019-03-26T15:22:53.116Z,10.08
2019-03-26T15:25:22.814Z,10.01
2019-03-26T15:27:52.138Z,9.84
2019-03-26T15:30:23.430Z,10.03
2019-03-26T15:32:52.767Z,10.05
2019-03-26T15:35:22.107Z,9.95
2019-03-26T15:37:51.444Z,9.89
2019-03-26T15:40:20.884Z,9.78
2019-03-26T15:42:50.292Z,9.82
2019-03-26T15:45:20.138Z,9.89
2019-03-26T15:47:49.622Z,9.98
2019-03-26T15:50:31.180Z,9.99
2019-03-26T15:53:00.524Z,10.01
2019-03-26T15:55:29.892Z,10.13
2019-03-26T15:57:59.975Z,10.09
2019-03-26T16:00:32.383Z,10.15
2019-03-26T16:03:01.790Z,10.08
2019-03-26T16:05:31.125Z,10.05
2019-03-26T16:08:00.822Z,10.00
2019-03-26T16:10:30.181Z,10.08
2019-03-26T16:12:59.511Z,9.92
2019-03-26T16:15:28.855Z,9.95
2019-03-26T16:17:58.171Z,9.90
2019-03-26T16:20:27.512Z,9.76
2019-03-26T16:22:56.863Z,9.63
2019-03-26T16:25:26.197Z,9.84
2019-03-26T16:27:55.852Z,9.85
2019-03-26T16:30:26.145Z,9.87
2019-03-26T16:32:55.507Z,9.87
2019-03-26T16:35:24.862Z,9.77
2019-03-26T16:37:54.290Z,9.72
2019-03-26T16:40:23.693Z,9.73
2019-03-26T16:42:53.042Z,9.63
2019-03-26T16:45:22.367Z,9.60
2019-03-26T16:47:51.699Z,9.68
2019-03-26T16:50:21.017Z,9.66
2019-03-26T16:52:50.355Z,9.65
2019-03-26T16:55:19.975Z,9.64
2019-03-26T16:57:49.372Z,9.70
2019-03-26T17:00:21.770Z,9.66
2019-03-26T17:02:51.098Z,9.65
2019-03-26T17:05:26.346Z,9.64
2019-03-26T17:07:55.845Z,9.64
2019-03-26T17:10:25.191Z,9.63
2019-03-26T17:12:54.524Z,9.63
2019-03-26T17:15:23.952Z,9.61
2019-03-26T17:17:53.582Z,9.60
2019-03-26T17:20:24.178Z,9.58
2019-03-26T17:22:53.669Z,9.58
2019-03-26T17:25:23.005Z,9.59
2019-03-26T17:27:52.336Z,9.50
2019-03-26T17:30:21.668Z,9.45
2019-03-26T17:32:50.996Z,9.50
2019-03-26T17:35:20.329Z,9.53
2019-03-26T17:37:59.615Z,9.49
2019-03-26T17:40:20.791Z,9.48
2019-03-26T17:42:50.117Z,9.50
2019-03-26T17:45:19.454Z,9.41
2019-03-26T17:47:48.800Z,9.36
2019-03-26T17:50:18.207Z,9.45
2019-03-26T17:52:47.540Z,9.42
2019-03-26T17:55:16.870Z,9.40
2019-03-26T17:57:46.432Z,9.38
2019-03-26T18:00:17.782Z,9.29
2019-03-26T18:02:47.116Z,9.38
2019-03-26T18:05:27.871Z,9.39
2019-03-26T18:07:57.567Z,9.35
2019-03-26T18:10:26.985Z,9.29
2019-03-26T18:12:56.396Z,9.33
2019-03-26T18:15:25.725Z,9.40
2019-03-26T18:17:55.059Z,9.25
2019-03-26T18:20:32.624Z,9.29
2019-03-26T18:22:55.436Z,9.32
2019-03-26T18:25:24.848Z,9.29
2019-03-26T18:27:54.203Z,9.30
2019-03-26T18:30:23.865Z,9.29
2019-03-26T18:32:53.220Z,9.33
2019-03-26T18:35:22.558Z,9.30
2019-03-26T18:37:52.125Z,9.14
2019-03-26T18:40:21.467Z,9.01
2019-03-26T18:42:50.805Z,9.03
2019-03-26T18:45:20.462Z,9.09
2019-03-26T18:47:49.906Z,9.10
2019-03-26T18:50:21.046Z,9.08
2019-03-26T18:52:51.344Z,9.10
2019-03-26T18:55:20.682Z,9.13
2019-03-26T18:57:50.020Z,9.06
2019-03-26T19:00:22.723Z,9.09
2019-03-26T19:02:52.143Z,9.08
2019-03-26T19:05:21.566Z,8.95
2019-03-26T19:07:50.897Z,8.97
2019-03-26T19:10:28.837Z,8.97
2019-03-26T19:12:58.409Z,8.92
2019-03-26T19:15:28.042Z,8.90
2019-03-26T19:17:57.370Z,8.89
2019-03-26T19:20:26.786Z,8.92
2019-03-26T19:22:56.208Z,8.87
2019-03-26T19:25:25.593Z,8.90
2019-03-26T19:27:54.939Z,8.93
2019-03-26T19:30:24.276Z,8.93
2019-03-26T19:32:53.617Z,8.93
2019-03-26T19:35:22.945Z,8.95
2019-03-26T19:37:52.291Z,8.88
2019-03-26T19:40:21.703Z,8.86
2019-03-26T19:42:51.041Z,8.90
2019-03-26T19:45:20.364Z,8.97
2019-03-26T19:47:50.767Z,8.92
2019-03-26T19:50:20.160Z,8.83
2019-03-26T19:52:49.489Z,8.84
2019-03-26T19:55:18.821Z,8.85
2019-03-26T19:57:48.253Z,8.85
2019-03-26T20:00:18.017Z,8.79
2019-03-26T20:02:47.432Z,8.71
2019-03-26T20:05:16.817Z,8.83
2019-03-26T20:07:46.154Z,8.86
2019-03-26T20:10:17.177Z,8.89
2019-03-26T20:12:46.527Z,8.92
2019-03-26T20:15:17.001Z,8.93
2019-03-26T20:17:46.328Z,8.88
2019-03-26T20:20:16.390Z,8.86
2019-03-26T20:22:45.887Z,8.82
2019-03-26T20:25:15.452Z,8.75
2019-03-26T20:27:44.789Z,8.74
2019-03-26T20:30:14.652Z,8.79
2019-03-26T20:32:44.351Z,8.76
2019-03-26T20:35:14.121Z,8.75
2019-03-26T20:37:43.603Z,8.76
2019-03-26T20:40:13.473Z,8.77
2019-03-26T20:42:42.873Z,8.78
2019-03-26T20:45:14.530Z,8.76
2019-03-26T20:47:44.926Z,8.80
2019-03-26T20:50:14.814Z,8.76
2019-03-26T20:52:44.233Z,8.68
2019-03-26T20:55:14.298Z,8.65
2019-03-26T20:57:44.354Z,8.58
2019-03-26T21:00:15.665Z,8.63
2019-03-26T21:02:45.047Z,8.72
2019-03-26T21:05:14.615Z,8.71
2019-03-26T21:07:43.949Z,8.73
2019-03-26T21:10:13.832Z,8.64
2019-03-26T21:12:43.233Z,8.60
2019-03-26T21:15:12.730Z,8.62
2019-03-26T21:17:42.360Z,8.57
2019-03-26T21:20:12.031Z,8.51
2019-03-26T21:22:41.434Z,8.62
2019-03-26T21:25:11.108Z,8.63
2019-03-26T21:27:40.514Z,8.61
2019-03-26T21:30:15.999Z,8.55
2019-03-26T21:32:45.562Z,8.61
2019-03-26T21:35:15.462Z,8.56
2019-03-26T21:37:44.800Z,8.43
2019-03-26T21:40:14.398Z,8.43
2019-03-26T21:42:43.797Z,8.45
2019-03-26T21:45:14.895Z,8.41
2019-03-26T21:47:44.233Z,8.26
2019-03-26T21:50:13.794Z,8.23
2019-03-26T21:52:44.118Z,8.32
2019-03-26T21:55:13.739Z,8.37
2019-03-26T21:57:43.100Z,8.45
2019-03-26T22:00:13.642Z,8.43
2019-03-26T22:02:42.960Z,8.37
2019-03-26T22:05:12.845Z,8.42
2019-03-26T22:07:42.170Z,8.43
2019-03-26T22:10:11.851Z,8.35
2019-03-26T22:12:41.179Z,8.29
2019-03-26T22:15:11.761Z,8.27
2019-03-26T22:17:41.081Z,8.22
2019-03-26T22:20:11.623Z,8.29
2019-03-26T22:22:40.956Z,8.34
2019-03-26T22:25:10.537Z,8.34
2019-03-26T22:27:39.867Z,8.35
2019-03-26T22:30:11.114Z,8.30
2019-03-26T22:32:40.451Z,8.28
2019-03-26T22:35:10.071Z,8.32
2019-03-26T22:37:39.404Z,8.33
2019-03-26T22:40:09.276Z,8.28
2019-03-26T22:42:38.683Z,8.22
2019-03-26T22:45:10.325Z,8.17
2019-03-26T22:47:39.812Z,8.17
2019-03-26T22:50:10.998Z,8.16
2019-03-26T22:52:40.327Z,8.13
2019-03-26T22:55:10.642Z,8.03
2019-03-26T22:57:39.964Z,8.11
2019-03-26T23:00:12.519Z,8.17
2019-03-26T23:02:43.466Z,8.08
2019-03-26T23:05:14.553Z,8.07
2019-03-26T23:07:43.987Z,7.99
2019-03-26T23:10:15.581Z,8.04
2019-03-26T23:12:44.912Z,8.08
2019-03-26T23:15:17.354Z,8.05
2019-03-26T23:17:46.849Z,8.03
2019-03-26T23:20:16.250Z,7.89
2019-03-26T23:22:45.748Z,7.98
2019-03-26T23:25:16.015Z,8.04
2019-03-26T23:27:45.349Z,8.02
2019-03-26T23:30:15.580Z,8.00
2019-03-26T23:32:44.983Z,7.98
2019-03-26T23:35:14.480Z,8.01
2019-03-26T23:37:44.005Z,8.02
2019-03-26T23:40:13.694Z,8.02
2019-03-26T23:42:43.297Z,7.98
2019-03-26T23:45:12.963Z,8.02
2019-03-26T23:47:42.338Z,8.00
2019-03-26T23:50:13.194Z,7.92
2019-03-26T23:52:42.863Z,7.91
2019-03-26T23:55:12.726Z,7.87
2019-03-26T23:57:42.061Z,7.89
